sensor_id;sensor_type;location;lat;lon;timestamp;pressure;altitude;pressure_sealevel;temperature;humidity
75045;BME280;63614;56.026;35.960;2023-09-19T00:00:43;99719.81;;;11.41;90.88
75045;BME280;63614;56.026;35.960;2023-09-19T00:03:10;99722.50;;;11.48;90.94
75045;BME280;63614;56.026;35.960;2023-09-19T00:05:37;99721.50;;;11.49;90.80
75045;BME280;63614;56.026;35.960;2023-09-19T00:08:09;99716.91;;;11.51;90.73
75045;BME280;63614;56.026;35.960;2023-09-19T00:10:35;99716.34;;;11.56;90.44
75045;BME280;63614;56.026;35.960;2023-09-19T00:13:04;99712.81;;;11.63;90.37
75045;BME280;63614;56.026;35.960;2023-09-19T00:15:48;99713.56;;;11.57;90.33
75045;BME280;63614;56.026;35.960;2023-09-19T00:18:14;99717.78;;;11.58;90.45
75045;BME280;63614;56.026;35.960;2023-09-19T00:20:41;99717.34;;;11.55;90.09
75045;BME280;63614;56.026;35.960;2023-09-19T00:23:08;99709.91;;;11.52;90.58
75045;BME280;63614;56.026;35.960;2023-09-19T00:25:37;99708.31;;;11.51;90.77
75045;BME280;63614;56.026;35.960;2023-09-19T00:28:04;99712.25;;;11.47;91.08
75045;BME280;63614;56.026;35.960;2023-09-19T00:30:30;99708.06;;;11.45;90.87
75045;BME280;63614;56.026;35.960;2023-09-19T00:32:57;99701.59;;;11.41;91.19
75045;BME280;63614;56.026;35.960;2023-09-19T00:35:23;99698.09;;;11.34;91.22
75045;BME280;63614;56.026;35.960;2023-09-19T00:37:55;99696.69;;;11.32;91.46
75045;BME280;63614;56.026;35.960;2023-09-19T00:40:21;99700.38;;;11.22;91.54
75045;BME280;63614;56.026;35.960;2023-09-19T00:42:48;99691.31;;;11.18;91.76
75045;BME280;63614;56.026;35.960;2023-09-19T00:45:16;99702.56;;;11.19;91.94
75045;BME280;63614;56.026;35.960;2023-09-19T00:47:50;99701.28;;;11.15;91.92
75045;BME280;63614;56.026;35.960;2023-09-19T00:50:21;99700.88;;;11.11;92.23
75045;BME280;63614;56.026;35.960;2023-09-19T00:52:49;99697.47;;;11.11;92.36
75045;BME280;63614;56.026;35.960;2023-09-19T00:55:16;99703.91;;;11.15;92.47
75045;BME280;63614;56.026;35.960;2023-09-19T00:57:45;99697.72;;;11.16;92.32
75045;BME280;63614;56.026;35.960;2023-09-19T01:00:11;99694.75;;;11.19;92.12
75045;BME280;63614;56.026;35.960;2023-09-19T01:02:42;99700.56;;;11.21;92.02
75045;BME280;63614;56.026;35.960;2023-09-19T01:05:13;99704.44;;;11.25;92.23
75045;BME280;63614;56.026;35.960;2023-09-19T01:07:39;99698.94;;;11.20;92.19
75045;BME280;63614;56.026;35.960;2023-09-19T01:10:15;99695.00;;;11.24;92.14
75045;BME280;63614;56.026;35.960;2023-09-19T01:13:05;99704.50;;;11.32;92.22
75045;BME280;63614;56.026;35.960;2023-09-19T01:24:31;99695.59;;;11.26;92.39
75045;BME280;63614;56.026;35.960;2023-09-19T01:29:59;99695.44;;;11.27;91.82
75045;BME280;63614;56.026;35.960;2023-09-19T01:32:25;99691.22;;;11.26;92.22
75045;BME280;63614;56.026;35.960;2023-09-19T01:34:54;99682.78;;;11.24;92.23
75045;BME280;63614;56.026;35.960;2023-09-19T01:37:23;99681.19;;;11.23;92.19
75045;BME280;63614;56.026;35.960;2023-09-19T01:40:04;99677.94;;;11.21;92.06
75045;BME280;63614;56.026;35.960;2023-09-19T01:46:09;99670.59;;;11.10;92.27
75045;BME280;63614;56.026;35.960;2023-09-19T01:49:03;99673.75;;;11.05;92.62
75045;BME280;63614;56.026;35.960;2023-09-19T01:54:12;99666.78;;;11.06;92.32
75045;BME280;63614;56.026;35.960;2023-09-19T01:56:51;99667.75;;;11.05;92.44
75045;BME280;63614;56.026;35.960;2023-09-19T01:59:25;99662.38;;;11.06;92.23
75045;BME280;63614;56.026;35.960;2023-09-19T02:01:54;99659.88;;;10.98;92.75
75045;BME280;63614;56.026;35.960;2023-09-19T02:04:20;99654.50;;;11.00;92.61
75045;BME280;63614;56.026;35.960;2023-09-19T02:06:46;99655.91;;;11.02;92.60
75045;BME280;63614;56.026;35.960;2023-09-19T02:09:15;99652.75;;;11.07;92.68
75045;BME280;63614;56.026;35.960;2023-09-19T02:11:41;99658.59;;;11.09;92.37
75045;BME280;63614;56.026;35.960;2023-09-19T02:14:08;99641.84;;;11.18;92.16
75045;BME280;63614;56.026;35.960;2023-09-19T02:16:35;99640.06;;;11.19;91.67
75045;BME280;63614;56.026;35.960;2023-09-19T02:19:01;99628.47;;;11.21;91.79
75045;BME280;63614;56.026;35.960;2023-09-19T02:21:31;99636.09;;;11.23;91.64
75045;BME280;63614;56.026;35.960;2023-09-19T02:23:58;99636.56;;;11.26;91.45
75045;BME280;63614;56.026;35.960;2023-09-19T02:26:25;99639.56;;;11.30;91.28
75045;BME280;63614;56.026;35.960;2023-09-19T02:28:51;99638.84;;;11.36;90.94
75045;BME280;63614;56.026;35.960;2023-09-19T02:31:16;99632.06;;;11.42;90.86
75045;BME280;63614;56.026;35.960;2023-09-19T02:33:42;99636.91;;;11.45;90.51
75045;BME280;63614;56.026;35.960;2023-09-19T02:36:09;99635.91;;;11.46;90.18
75045;BME280;63614;56.026;35.960;2023-09-19T02:38:35;99637.47;;;11.40;90.28
75045;BME280;63614;56.026;35.960;2023-09-19T02:41:01;99636.47;;;11.41;90.40
75045;BME280;63614;56.026;35.960;2023-09-19T02:43:27;99619.97;;;11.34;90.39
75045;BME280;63614;56.026;35.960;2023-09-19T02:45:53;99635.59;;;11.34;90.47
75045;BME280;63614;56.026;35.960;2023-09-19T02:48:20;99634.75;;;11.27;90.56
75045;BME280;63614;56.026;35.960;2023-09-19T02:50:49;99634.56;;;11.29;90.92
75045;BME280;63614;56.026;35.960;2023-09-19T02:53:15;99642.97;;;11.31;90.35
75045;BME280;63614;56.026;35.960;2023-09-19T02:55:41;99635.53;;;11.27;90.36
75045;BME280;63614;56.026;35.960;2023-09-19T02:58:08;99638.25;;;11.19;90.15
75045;BME280;63614;56.026;35.960;2023-09-19T03:00:36;99633.19;;;11.11;90.81
75045;BME280;63614;56.026;35.960;2023-09-19T03:03:02;99632.75;;;11.07;90.92
75045;BME280;63614;56.026;35.960;2023-09-19T03:05:28;99634.28;;;11.02;91.04
75045;BME280;63614;56.026;35.960;2023-09-19T03:07:57;99631.63;;;10.95;90.94
75045;BME280;63614;56.026;35.960;2023-09-19T03:10:26;99623.28;;;10.85;91.42
75045;BME280;63614;56.026;35.960;2023-09-19T03:12:54;99635.50;;;10.84;91.43
75045;BME280;63614;56.026;35.960;2023-09-19T03:15:20;99631.09;;;10.85;91.34
75045;BME280;63614;56.026;35.960;2023-09-19T03:17:49;99628.69;;;10.83;91.27
75045;BME280;63614;56.026;35.960;2023-09-19T03:20:19;99617.81;;;10.80;91.46
75045;BME280;63614;56.026;35.960;2023-09-19T03:22:47;99619.09;;;10.84;91.27
75045;BME280;63614;56.026;35.960;2023-09-19T03:25:15;99619.88;;;10.84;91.34
75045;BME280;63614;56.026;35.960;2023-09-19T03:27:45;99613.25;;;10.82;91.69
75045;BME280;63614;56.026;35.960;2023-09-19T03:30:12;99610.66;;;10.82;91.81
75045;BME280;63614;56.026;35.960;2023-09-19T03:32:47;99612.00;;;10.78;92.42
75045;BME280;63614;56.026;35.960;2023-09-19T03:35:17;99603.03;;;10.80;92.30
75045;BME280;63614;56.026;35.960;2023-09-19T03:37:43;99600.88;;;10.84;92.58
75045;BME280;63614;56.026;35.960;2023-09-19T03:40:12;99606.75;;;10.93;92.35
75045;BME280;63614;56.026;35.960;2023-09-19T03:42:41;99605.41;;;10.97;92.24
75045;BME280;63614;56.026;35.960;2023-09-19T03:45:10;99602.63;;;10.98;92.04
75045;BME280;63614;56.026;35.960;2023-09-19T03:47:47;99598.81;;;11.01;92.14
75045;BME280;63614;56.026;35.960;2023-09-19T03:50:15;99597.53;;;11.12;91.99
75045;BME280;63614;56.026;35.960;2023-09-19T03:52:44;99603.53;;;11.34;91.39
75045;BME280;63614;56.026;35.960;2023-09-19T03:55:10;99596.00;;;11.67;89.84
75045;BME280;63614;56.026;35.960;2023-09-19T03:57:37;99594.88;;;12.05;88.16
75045;BME280;63614;56.026;35.960;2023-09-19T04:00:03;99594.09;;;12.11;87.38
75045;BME280;63614;56.026;35.960;2023-09-19T04:02:39;99599.44;;;11.96;87.90
75045;BME280;63614;56.026;35.960;2023-09-19T04:05:06;99595.34;;;11.87;88.10
75045;BME280;63614;56.026;35.960;2023-09-19T04:07:32;99601.06;;;11.75;89.08
75045;BME280;63614;56.026;35.960;2023-09-19T04:09:58;99597.47;;;11.76;89.31
75045;BME280;63614;56.026;35.960;2023-09-19T04:12:23;99584.44;;;11.76;89.01
75045;BME280;63614;56.026;35.960;2023-09-19T04:14:49;99576.81;;;11.75;89.18
75045;BME280;63614;56.026;35.960;2023-09-19T04:17:16;99581.09;;;11.82;89.49
75045;BME280;63614;56.026;35.960;2023-09-19T04:19:42;99589.75;;;11.90;89.22
75045;BME280;63614;56.026;35.960;2023-09-19T04:22:08;99583.00;;;11.95;89.31
75045;BME280;63614;56.026;35.960;2023-09-19T04:24:35;99589.69;;;12.05;88.80
75045;BME280;63614;56.026;35.960;2023-09-19T04:27:01;99582.53;;;12.20;88.89
75045;BME280;63614;56.026;35.960;2023-09-19T04:29:27;99587.19;;;12.80;86.38
75045;BME280;63614;56.026;35.960;2023-09-19T04:31:55;99590.59;;;12.94;85.10
75045;BME280;63614;56.026;35.960;2023-09-19T04:34:23;99590.00;;;12.85;85.21
75045;BME280;63614;56.026;35.960;2023-09-19T04:36:50;99595.41;;;12.83;85.50
75045;BME280;63614;56.026;35.960;2023-09-19T04:39:16;99588.78;;;12.81;85.58
75045;BME280;63614;56.026;35.960;2023-09-19T04:41:43;99588.75;;;12.74;85.83
75045;BME280;63614;56.026;35.960;2023-09-19T04:44:10;99588.56;;;12.76;85.73
75045;BME280;63614;56.026;35.960;2023-09-19T04:46:36;99583.16;;;12.77;85.85
75045;BME280;63614;56.026;35.960;2023-09-19T04:49:02;99576.09;;;12.71;85.87
75045;BME280;63614;56.026;35.960;2023-09-19T04:51:28;99571.91;;;12.77;85.96
75045;BME280;63614;56.026;35.960;2023-09-19T04:53:58;99564.25;;;12.68;86.13
75045;BME280;63614;56.026;35.960;2023-09-19T04:56:24;99565.06;;;12.69;86.30
75045;BME280;63614;56.026;35.960;2023-09-19T04:58:50;99557.84;;;12.71;86.57
75045;BME280;63614;56.026;35.960;2023-09-19T05:01:16;99563.44;;;12.61;86.60
75045;BME280;63614;56.026;35.960;2023-09-19T05:03:42;99569.25;;;12.70;86.63
75045;BME280;63614;56.026;35.960;2023-09-19T05:06:08;99557.84;;;12.78;86.28
75045;BME280;63614;56.026;35.960;2023-09-19T05:08:33;99567.50;;;12.84;86.26
75045;BME280;63614;56.026;35.960;2023-09-19T05:11:01;99563.50;;;12.81;86.40
75045;BME280;63614;56.026;35.960;2023-09-19T05:13:27;99564.69;;;12.92;85.99
75045;BME280;63614;56.026;35.960;2023-09-19T05:15:53;99561.72;;;13.08;85.47
75045;BME280;63614;56.026;35.960;2023-09-19T05:18:19;99560.94;;;13.15;85.09
75045;BME280;63614;56.026;35.960;2023-09-19T05:20:45;99565.19;;;13.42;84.41
75045;BME280;63614;56.026;35.960;2023-09-19T05:23:10;99558.72;;;13.72;82.91
75045;BME280;63614;56.026;35.960;2023-09-19T05:25:40;99560.47;;;14.05;81.95
75045;BME280;63614;56.026;35.960;2023-09-19T05:28:07;99553.59;;;14.17;81.08
75045;BME280;63614;56.026;35.960;2023-09-19T05:30:33;99562.47;;;14.54;79.97
75045;BME280;63614;56.026;35.960;2023-09-19T05:33:05;99563.41;;;14.74;78.33
75045;BME280;63614;56.026;35.960;2023-09-19T05:35:31;99553.16;;;15.04;78.80
75045;BME280;63614;56.026;35.960;2023-09-19T05:37:57;99558.03;;;15.25;77.58
75045;BME280;63614;56.026;35.960;2023-09-19T05:40:25;99552.97;;;15.49;76.25
75045;BME280;63614;56.026;35.960;2023-09-19T05:42:50;99557.28;;;15.43;77.03
75045;BME280;63614;56.026;35.960;2023-09-19T05:45:17;99550.63;;;15.41;76.32
75045;BME280;63614;56.026;35.960;2023-09-19T05:47:52;99554.31;;;14.83;77.95
75045;BME280;63614;56.026;35.960;2023-09-19T05:50:21;99542.00;;;14.83;79.08
75045;BME280;63614;56.026;35.960;2023-09-19T05:52:54;99545.28;;;14.72;78.99
75045;BME280;63614;56.026;35.960;2023-09-19T05:55:22;99540.53;;;14.56;79.54
75045;BME280;63614;56.026;35.960;2023-09-19T05:57:51;99548.59;;;14.54;80.03
75045;BME280;63614;56.026;35.960;2023-09-19T06:00:22;99549.09;;;14.38;80.89
75045;BME280;63614;56.026;35.960;2023-09-19T06:02:56;99541.56;;;14.48;80.94
75045;BME280;63614;56.026;35.960;2023-09-19T06:05:27;99543.94;;;14.56;81.19
75045;BME280;63614;56.026;35.960;2023-09-19T06:07:53;99536.72;;;14.51;81.04
75045;BME280;63614;56.026;35.960;2023-09-19T06:10:20;99545.19;;;14.53;81.03
75045;BME280;63614;56.026;35.960;2023-09-19T06:12:49;99542.78;;;14.52;81.26
75045;BME280;63614;56.026;35.960;2023-09-19T06:15:16;99547.00;;;14.46;81.88
75045;BME280;63614;56.026;35.960;2023-09-19T06:17:53;99549.44;;;14.48;82.22
75045;BME280;63614;56.026;35.960;2023-09-19T06:20:23;99549.22;;;14.49;82.53
75045;BME280;63614;56.026;35.960;2023-09-19T06:22:51;99554.91;;;14.40;82.36
75045;BME280;63614;56.026;35.960;2023-09-19T06:25:17;99553.88;;;14.41;82.51
75045;BME280;63614;56.026;35.960;2023-09-19T06:27:49;99563.78;;;14.32;82.81
75045;BME280;63614;56.026;35.960;2023-09-19T06:30:18;99564.78;;;14.31;82.99
75045;BME280;63614;56.026;35.960;2023-09-19T06:32:44;99565.41;;;14.33;82.99
75045;BME280;63614;56.026;35.960;2023-09-19T06:35:11;99572.44;;;14.32;82.91
75045;BME280;63614;56.026;35.960;2023-09-19T06:37:38;99582.47;;;14.35;83.08
75045;BME280;63614;56.026;35.960;2023-09-19T06:40:12;99581.81;;;14.47;82.73
75045;BME280;63614;56.026;35.960;2023-09-19T06:42:42;99582.81;;;14.52;82.45
75045;BME280;63614;56.026;35.960;2023-09-19T06:45:10;99575.56;;;14.54;82.21
75045;BME280;63614;56.026;35.960;2023-09-19T06:47:47;99580.59;;;14.56;82.33
75045;BME280;63614;56.026;35.960;2023-09-19T06:50:20;99563.09;;;14.50;82.32
75045;BME280;63614;56.026;35.960;2023-09-19T06:52:49;99568.19;;;14.38;83.06
75045;BME280;63614;56.026;35.960;2023-09-19T06:55:16;99565.41;;;14.33;83.35
75045;BME280;63614;56.026;35.960;2023-09-19T06:57:45;99577.47;;;14.34;83.49
75045;BME280;63614;56.026;35.960;2023-09-19T07:00:12;99580.47;;;14.38;83.67
75045;BME280;63614;56.026;35.960;2023-09-19T07:02:42;99570.94;;;14.50;83.34
75045;BME280;63614;56.026;35.960;2023-09-19T07:05:08;99575.81;;;14.46;83.84
75045;BME280;63614;56.026;35.960;2023-09-19T07:07:35;99561.38;;;14.30;84.25
75045;BME280;63614;56.026;35.960;2023-09-19T07:10:04;99561.97;;;14.32;84.66
75045;BME280;63614;56.026;35.960;2023-09-19T07:12:36;99563.09;;;14.50;84.12
75045;BME280;63614;56.026;35.960;2023-09-19T07:15:02;99570.13;;;14.56;83.56
75045;BME280;63614;56.026;35.960;2023-09-19T07:17:31;99559.19;;;14.73;83.42
75045;BME280;63614;56.026;35.960;2023-09-19T07:19:58;99563.38;;;14.80;82.99
75045;BME280;63614;56.026;35.960;2023-09-19T07:22:26;99554.66;;;14.86;82.41
75045;BME280;63614;56.026;35.960;2023-09-19T07:24:52;99555.09;;;14.83;82.74
75045;BME280;63614;56.026;35.960;2023-09-19T07:27:18;99546.44;;;14.83;82.42
75045;BME280;63614;56.026;35.960;2023-09-19T07:29:44;99529.53;;;14.79;82.73
75045;BME280;63614;56.026;35.960;2023-09-19T07:32:11;99524.91;;;14.81;82.75
75045;BME280;63614;56.026;35.960;2023-09-19T07:34:37;99528.69;;;14.85;83.15
75045;BME280;63614;56.026;35.960;2023-09-19T07:37:06;99525.41;;;14.58;83.77
75045;BME280;63614;56.026;35.960;2023-09-19T07:39:32;99525.13;;;14.73;83.64
75045;BME280;63614;56.026;35.960;2023-09-19T07:41:57;99532.66;;;14.94;82.93
75045;BME280;63614;56.026;35.960;2023-09-19T07:44:23;99532.13;;;15.17;83.36
75045;BME280;63614;56.026;35.960;2023-09-19T07:46:51;99524.97;;;15.50;81.81
75045;BME280;63614;56.026;35.960;2023-09-19T07:49:17;99525.69;;;15.57;81.25
75045;BME280;63614;56.026;35.960;2023-09-19T07:51:44;99528.94;;;15.77;80.14
75045;BME280;63614;56.026;35.960;2023-09-19T07:54:13;99540.38;;;16.02;79.43
75045;BME280;63614;56.026;35.960;2023-09-19T07:56:40;99536.59;;;16.16;78.43
75045;BME280;63614;56.026;35.960;2023-09-19T07:59:06;99539.41;;;16.33;77.50
75045;BME280;63614;56.026;35.960;2023-09-19T08:01:32;99531.13;;;16.78;77.33
75045;BME280;63614;56.026;35.960;2023-09-19T08:03:58;99524.84;;;17.10;75.91
75045;BME280;63614;56.026;35.960;2023-09-19T08:06:24;99524.50;;;17.30;75.66
75045;BME280;63614;56.026;35.960;2023-09-19T08:08:52;99522.91;;;17.29;73.42
75045;BME280;63614;56.026;35.960;2023-09-19T08:11:19;99522.34;;;17.38;73.60
75045;BME280;63614;56.026;35.960;2023-09-19T08:13:47;99511.47;;;17.47;73.00
75045;BME280;63614;56.026;35.960;2023-09-19T08:16:15;99510.44;;;17.48;73.12
75045;BME280;63614;56.026;35.960;2023-09-19T08:18:41;99506.78;;;17.13;74.25
75045;BME280;63614;56.026;35.960;2023-09-19T08:21:11;99512.16;;;17.18;74.94
75045;BME280;63614;56.026;35.960;2023-09-19T08:23:37;99514.88;;;17.00;75.71
75045;BME280;63614;56.026;35.960;2023-09-19T08:26:08;99510.22;;;17.14;74.68
75045;BME280;63614;56.026;35.960;2023-09-19T08:28:35;99510.44;;;17.24;74.46
75045;BME280;63614;56.026;35.960;2023-09-19T08:31:03;99502.31;;;17.37;75.00
75045;BME280;63614;56.026;35.960;2023-09-19T08:33:33;99502.34;;;17.25;74.35
75045;BME280;63614;56.026;35.960;2023-09-19T08:36:00;99494.22;;;17.27;74.06
75045;BME280;63614;56.026;35.960;2023-09-19T08:38:26;99500.06;;;17.41;73.59
75045;BME280;63614;56.026;35.960;2023-09-19T08:41:05;99488.69;;;17.64;73.68
75045;BME280;63614;56.026;35.960;2023-09-19T08:43:32;99491.09;;;17.77;72.88
75045;BME280;63614;56.026;35.960;2023-09-19T08:46:15;99489.91;;;17.85;71.98
75045;BME280;63614;56.026;35.960;2023-09-19T08:48:54;99485.59;;;17.79;72.00
75045;BME280;63614;56.026;35.960;2023-09-19T08:51:29;99479.75;;;17.89;73.09
75045;BME280;63614;56.026;35.960;2023-09-19T08:54:08;99480.75;;;18.00;72.83
75045;BME280;63614;56.026;35.960;2023-09-19T08:56:39;99472.63;;;18.01;73.10
75045;BME280;63614;56.026;35.960;2023-09-19T08:59:06;99473.53;;;18.07;72.84
75045;BME280;63614;56.026;35.960;2023-09-19T09:01:38;99464.41;;;18.26;72.65
75045;BME280;63614;56.026;35.960;2023-09-19T09:04:11;99478.41;;;18.44;72.07
75045;BME280;63614;56.026;35.960;2023-09-19T09:06:39;99462.03;;;18.59;71.41
75045;BME280;63614;56.026;35.960;2023-09-19T09:09:07;99466.25;;;18.72;70.40
75045;BME280;63614;56.026;35.960;2023-09-19T09:11:36;99457.69;;;18.81;70.92
75045;BME280;63614;56.026;35.960;2023-09-19T09:14:08;99455.41;;;18.85;70.30
75045;BME280;63614;56.026;35.960;2023-09-19T09:16:38;99465.88;;;18.68;69.94
75045;BME280;63614;56.026;35.960;2023-09-19T09:19:04;99454.81;;;18.83;70.17
75045;BME280;63614;56.026;35.960;2023-09-19T09:21:30;99458.16;;;18.95;70.07
75045;BME280;63614;56.026;35.960;2023-09-19T09:24:26;99468.81;;;19.00;70.24
75045;BME280;63614;56.026;35.960;2023-09-19T09:26:55;99465.19;;;19.06;69.37
75045;BME280;63614;56.026;35.960;2023-09-19T09:29:48;99459.97;;;19.29;69.41
75045;BME280;63614;56.026;35.960;2023-09-19T09:32:27;99461.81;;;19.28;68.26
75045;BME280;63614;56.026;35.960;2023-09-19T09:35:01;99460.38;;;19.20;68.93
75045;BME280;63614;56.026;35.960;2023-09-19T09:37:30;99457.50;;;19.22;68.79
75045;BME280;63614;56.026;35.960;2023-09-19T09:40:05;99450.47;;;19.28;69.34
75045;BME280;63614;56.026;35.960;2023-09-19T09:42:40;99452.16;;;19.34;69.55
75045;BME280;63614;56.026;35.960;2023-09-19T09:45:31;99456.47;;;19.23;69.80
75045;BME280;63614;56.026;35.960;2023-09-19T09:48:01;99446.34;;;19.15;69.69
75045;BME280;63614;56.026;35.960;2023-09-19T09:50:47;99443.28;;;19.23;69.20
75045;BME280;63614;56.026;35.960;2023-09-19T09:53:29;99441.44;;;19.23;69.43
75045;BME280;63614;56.026;35.960;2023-09-19T09:56:07;99438.56;;;19.25;70.00
75045;BME280;63614;56.026;35.960;2023-09-19T09:58:51;99433.69;;;19.34;70.25
75045;BME280;63614;56.026;35.960;2023-09-19T10:01:27;99433.69;;;19.34;70.56
75045;BME280;63614;56.026;35.960;2023-09-19T10:04:27;99428.78;;;19.42;70.51
75045;BME280;63614;56.026;35.960;2023-09-19T10:06:59;99426.34;;;19.58;70.87
75045;BME280;63614;56.026;35.960;2023-09-19T10:09:45;99430.63;;;19.64;69.81
75045;BME280;63614;56.026;35.960;2023-09-19T10:12:14;99418.72;;;19.62;70.02
75045;BME280;63614;56.026;35.960;2023-09-19T10:14:53;99420.25;;;19.57;70.37
75045;BME280;63614;56.026;35.960;2023-09-19T10:17:23;99416.03;;;19.78;68.82
75045;BME280;63614;56.026;35.960;2023-09-19T10:19:59;99413.72;;;20.09;68.86
75045;BME280;63614;56.026;35.960;2023-09-19T10:22:34;99412.75;;;20.21;68.38
75045;BME280;63614;56.026;35.960;2023-09-19T10:25:04;99410.59;;;20.45;68.59
75045;BME280;63614;56.026;35.960;2023-09-19T10:27:38;99404.09;;;20.63;67.67
75045;BME280;63614;56.026;35.960;2023-09-19T10:30:15;99401.63;;;20.83;67.51
75045;BME280;63614;56.026;35.960;2023-09-19T10:32:43;99397.59;;;21.13;66.25
75045;BME280;63614;56.026;35.960;2023-09-19T10:35:20;99387.09;;;21.34;66.89
75045;BME280;63614;56.026;35.960;2023-09-19T10:37:50;99388.25;;;21.53;65.74
75045;BME280;63614;56.026;35.960;2023-09-19T10:40:21;99392.53;;;21.65;65.81
75045;BME280;63614;56.026;35.960;2023-09-19T10:43:04;99382.97;;;21.53;65.27
75045;BME280;63614;56.026;35.960;2023-09-19T10:45:35;99390.38;;;21.56;61.03
75045;BME280;63614;56.026;35.960;2023-09-19T10:48:07;99381.28;;;21.32;60.46
75045;BME280;63614;56.026;35.960;2023-09-19T10:50:50;99380.09;;;21.07;62.05
75045;BME280;63614;56.026;35.960;2023-09-19T10:53:18;99382.44;;;20.98;63.26
75045;BME280;63614;56.026;35.960;2023-09-19T10:56:04;99380.50;;;20.83;63.81
75045;BME280;63614;56.026;35.960;2023-09-19T10:58:46;99377.00;;;20.73;65.22
75045;BME280;63614;56.026;35.960;2023-09-19T11:04:45;99368.19;;;20.62;65.22
75045;BME280;63614;56.026;35.960;2023-09-19T11:07:15;99368.25;;;20.67;64.70
75045;BME280;63614;56.026;35.960;2023-09-19T11:09:51;99367.72;;;20.70;65.13
75045;BME280;63614;56.026;35.960;2023-09-19T11:15:10;99362.56;;;20.85;64.02
75045;BME280;63614;56.026;35.960;2023-09-19T11:17:39;99366.75;;;20.86;63.20
75045;BME280;63614;56.026;35.960;2023-09-19T11:28:34;99361.59;;;21.12;63.90
75045;BME280;63614;56.026;35.960;2023-09-19T11:31:41;99354.00;;;21.26;64.60
75045;BME280;63614;56.026;35.960;2023-09-19T11:40:06;99357.56;;;21.52;64.75
75045;BME280;63614;56.026;35.960;2023-09-19T11:43:03;99347.19;;;21.46;64.63
75045;BME280;63614;56.026;35.960;2023-09-19T11:46:08;99350.59;;;21.41;64.32
75045;BME280;63614;56.026;35.960;2023-09-19T11:48:36;99349.25;;;21.28;65.79
75045;BME280;63614;56.026;35.960;2023-09-19T11:51:11;99347.41;;;21.34;65.57
75045;BME280;63614;56.026;35.960;2023-09-19T11:53:48;99341.63;;;21.37;65.75
75045;BME280;63614;56.026;35.960;2023-09-19T11:56:21;99338.97;;;21.42;64.28
75045;BME280;63614;56.026;35.960;2023-09-19T11:58:53;99335.00;;;21.39;63.04
75045;BME280;63614;56.026;35.960;2023-09-19T12:01:29;99327.84;;;21.35;63.14
75045;BME280;63614;56.026;35.960;2023-09-19T12:04:04;99326.78;;;21.36;62.69
75045;BME280;63614;56.026;35.960;2023-09-19T12:06:31;99320.97;;;21.34;62.25
75045;BME280;63614;56.026;35.960;2023-09-19T12:09:04;99321.41;;;21.15;61.06
75045;BME280;63614;56.026;35.960;2023-09-19T12:11:44;99320.44;;;21.32;61.76
75045;BME280;63614;56.026;35.960;2023-09-19T12:14:10;99320.47;;;21.42;61.42
75045;BME280;63614;56.026;35.960;2023-09-19T12:16:40;99318.88;;;21.46;61.96
75045;BME280;63614;56.026;35.960;2023-09-19T12:19:32;99315.75;;;21.49;61.99
75045;BME280;63614;56.026;35.960;2023-09-19T12:22:03;99314.19;;;21.64;61.83
75045;BME280;63614;56.026;35.960;2023-09-19T12:24:35;99313.69;;;21.72;60.75
75045;BME280;63614;56.026;35.960;2023-09-19T12:27:07;99303.59;;;21.69;60.50
75045;BME280;63614;56.026;35.960;2023-09-19T12:29:46;99311.81;;;21.67;60.57
75045;BME280;63614;56.026;35.960;2023-09-19T12:32:17;99302.53;;;21.59;59.42
75045;BME280;63614;56.026;35.960;2023-09-19T12:34:53;99298.50;;;21.36;60.35
75045;BME280;63614;56.026;35.960;2023-09-19T12:37:21;99304.03;;;21.35;60.99
75045;BME280;63614;56.026;35.960;2023-09-19T12:39:52;99302.41;;;21.23;61.76
75045;BME280;63614;56.026;35.960;2023-09-19T12:42:24;99289.97;;;21.19;61.23
75045;BME280;63614;56.026;35.960;2023-09-19T12:44:51;99296.56;;;21.06;60.99
75045;BME280;63614;56.026;35.960;2023-09-19T12:47:32;99292.28;;;21.00;62.30
75045;BME280;63614;56.026;35.960;2023-09-19T12:50:11;99287.53;;;21.02;61.29
75045;BME280;63614;56.026;35.960;2023-09-19T12:52:51;99288.84;;;20.99;60.67
75045;BME280;63614;56.026;35.960;2023-09-19T12:55:28;99283.53;;;20.94;61.00
75045;BME280;63614;56.026;35.960;2023-09-19T12:58:15;99279.81;;;20.90;60.90
75045;BME280;63614;56.026;35.960;2023-09-19T13:00:49;99282.94;;;20.82;61.29
75045;BME280;63614;56.026;35.960;2023-09-19T13:06:00;99281.31;;;20.76;61.54
75045;BME280;63614;56.026;35.960;2023-09-19T13:08:38;99267.56;;;20.68;60.70
75045;BME280;63614;56.026;35.960;2023-09-19T13:11:23;99276.78;;;20.66;62.45
75045;BME280;63614;56.026;35.960;2023-09-19T13:14:12;99263.81;;;20.64;62.77
75045;BME280;63614;56.026;35.960;2023-09-19T13:17:07;99265.44;;;20.65;62.99
75045;BME280;63614;56.026;35.960;2023-09-19T13:19:50;99263.25;;;20.62;62.50
75045;BME280;63614;56.026;35.960;2023-09-19T13:25:15;99255.31;;;20.57;63.74
75045;BME280;63614;56.026;35.960;2023-09-19T13:30:23;99244.66;;;20.42;64.62
75045;BME280;63614;56.026;35.960;2023-09-19T13:33:16;99254.94;;;20.38;65.46
75045;BME280;63614;56.026;35.960;2023-09-19T13:35:57;99240.38;;;20.36;66.00
75045;BME280;63614;56.026;35.960;2023-09-19T13:38:24;99244.88;;;20.35;66.28
75045;BME280;63614;56.026;35.960;2023-09-19T13:40:54;99235.88;;;20.31;66.09
75045;BME280;63614;56.026;35.960;2023-09-19T13:43:21;99240.34;;;20.25;66.10
75045;BME280;63614;56.026;35.960;2023-09-19T13:45:50;99237.97;;;20.24;66.05
75045;BME280;63614;56.026;35.960;2023-09-19T13:48:16;99234.22;;;20.20;66.45
75045;BME280;63614;56.026;35.960;2023-09-19T13:50:57;99235.53;;;20.17;66.40
75045;BME280;63614;56.026;35.960;2023-09-19T13:53:26;99234.72;;;20.17;66.52
75045;BME280;63614;56.026;35.960;2023-09-19T13:55:52;99232.59;;;20.13;67.09